sensor_id;sensor_type;location;lat;lon;timestamp;pressure;altitude;pressure_sealevel;temperature;humidity
54146;BME280;65909;49.422;7.738;2022-12-18T00:01:04;79736.75;;;-145.25;88.82
54146;BME280;65909;49.422;7.738;2022-12-18T00:03:32;79690.59;;;-145.25;89.10
54146;BME280;65909;49.422;7.738;2022-12-18T00:05:58;79706.66;;;-145.25;88.15
54146;BME280;65909;49.422;7.738;2022-12-18T00:08:23;79726.72;;;-145.25;88.41
54146;BME280;65909;49.422;7.738;2022-12-18T00:10:49;79738.75;;;-145.25;88.43
54146;BME280;65909;49.422;7.738;2022-12-18T00:13:14;79706.66;;;-145.25;89.24
54146;BME280;65909;49.422;7.738;2022-12-18T00:15:40;79702.66;;;-145.25;88.66
54146;BME280;65909;49.422;7.738;2022-12-18T00:18:05;79650.47;;;-145.25;87.94
54146;BME280;65909;49.422;7.738;2022-12-18T00:20:35;79642.44;;;-145.25;86.43
54146;BME280;65909;49.422;7.738;2022-12-18T00:23:00;79744.78;;;-145.25;86.21
54146;BME280;65909;49.422;7.738;2022-12-18T00:25:26;79758.81;;;-145.25;87.32
54146;BME280;65909;49.422;7.738;2022-12-18T00:27:51;79690.59;;;-145.25;87.60
54146;BME280;65909;49.422;7.738;2022-12-18T00:30:17;79684.59;;;-145.25;87.37
54146;BME280;65909;49.422;7.738;2022-12-18T00:32:42;79696.63;;;-145.25;88.27
54146;BME280;65909;49.422;7.738;2022-12-18T00:35:08;79650.47;;;-145.25;87.02
54146;BME280;65909;49.422;7.738;2022-12-18T00:37:33;79638.44;;;-145.25;86.90
54146;BME280;65909;49.422;7.738;2022-12-18T00:39:59;79658.50;;;-145.25;86.91
54146;BME280;65909;49.422;7.738;2022-12-18T00:42:24;79668.53;;;-145.25;86.60
54146;BME280;65909;49.422;7.738;2022-12-18T00:45:08;79680.56;;;-145.25;87.27
54146;BME280;65909;49.422;7.738;2022-12-18T00:47:34;79690.59;;;-145.25;87.09
54146;BME280;65909;49.422;7.738;2022-12-18T00:49:59;79702.66;;;-145.25;87.65
54146;BME280;65909;49.422;7.738;2022-12-18T00:52:24;79710.66;;;-145.25;88.77
54146;BME280;65909;49.422;7.738;2022-12-18T00:54:50;79712.69;;;-145.25;89.15
54146;BME280;65909;49.422;7.738;2022-12-18T00:57:15;79730.75;;;-145.25;89.57
54146;BME280;65909;49.422;7.738;2022-12-18T00:59:40;79754.81;;;-145.25;89.34
54146;BME280;65909;49.422;7.738;2022-12-18T01:02:06;79698.63;;;-145.25;89.53
54146;BME280;65909;49.422;7.738;2022-12-18T01:04:32;79702.66;;;-145.25;89.40
54146;BME280;65909;49.422;7.738;2022-12-18T01:06:57;79710.66;;;-145.25;89.52
54146;BME280;65909;49.422;7.738;2022-12-18T01:09:23;79702.66;;;-145.25;89.72
54146;BME280;65909;49.422;7.738;2022-12-18T01:11:48;79722.72;;;-145.25;89.72
54146;BME280;65909;49.422;7.738;2022-12-18T01:14:13;79676.56;;;-145.25;89.48
54146;BME280;65909;49.422;7.738;2022-12-18T01:16:39;79676.56;;;-145.25;89.04
54146;BME280;65909;49.422;7.738;2022-12-18T01:19:04;79692.63;;;-145.25;88.69
54146;BME280;65909;49.422;7.738;2022-12-18T01:21:29;79668.53;;;-145.25;88.09
54146;BME280;65909;49.422;7.738;2022-12-18T01:23:56;79656.50;;;-145.25;87.65
54146;BME280;65909;49.422;7.738;2022-12-18T01:26:22;79692.63;;;-145.25;87.06
54146;BME280;65909;49.422;7.738;2022-12-18T01:28:48;79692.63;;;-145.25;87.65
54146;BME280;65909;49.422;7.738;2022-12-18T01:31:22;79682.59;;;-145.25;88.39
54146;BME280;65909;49.422;7.738;2022-12-18T01:33:48;79688.59;;;-145.25;88.10
54146;BME280;65909;49.422;7.738;2022-12-18T01:36:19;79668.53;;;-145.25;87.82
54146;BME280;65909;49.422;7.738;2022-12-18T01:38:44;79714.69;;;-145.25;87.83
54146;BME280;65909;49.422;7.738;2022-12-18T01:41:10;79760.84;;;-145.25;89.14
54146;BME280;65909;49.422;7.738;2022-12-18T01:43:55;79736.75;;;-145.25;89.48
54146;BME280;65909;49.422;7.738;2022-12-18T01:46:26;79690.59;;;-145.25;89.46
54146;BME280;65909;49.422;7.738;2022-12-18T01:48:57;79656.50;;;-145.25;87.98
54146;BME280;65909;49.422;7.738;2022-12-18T01:51:24;79672.56;;;-145.25;86.79
54146;BME280;65909;49.422;7.738;2022-12-18T01:53:51;79688.59;;;-145.25;86.61
54146;BME280;65909;49.422;7.738;2022-12-18T01:56:18;79670.53;;;-145.25;86.32
54146;BME280;65909;49.422;7.738;2022-12-18T01:59:01;79680.56;;;-145.25;86.23
54146;BME280;65909;49.422;7.738;2022-12-18T02:01:29;79738.75;;;-145.25;87.65
54146;BME280;65909;49.422;7.738;2022-12-18T02:03:55;79730.75;;;-145.25;88.38
54146;BME280;65909;49.422;7.738;2022-12-18T02:06:29;79744.78;;;-145.25;88.09
54146;BME280;65909;49.422;7.738;2022-12-18T02:09:08;79702.66;;;-145.25;89.56
54146;BME280;65909;49.422;7.738;2022-12-18T02:11:53;79672.56;;;-145.25;88.45
54146;BME280;65909;49.422;7.738;2022-12-18T02:17:31;79670.53;;;-145.25;88.21
54146;BME280;65909;49.422;7.738;2022-12-18T02:28:36;79702.66;;;-145.25;86.23
54146;BME280;65909;49.422;7.738;2022-12-18T02:31:06;79724.72;;;-145.25;86.98
54146;BME280;65909;49.422;7.738;2022-12-18T02:33:33;79720.72;;;-145.25;87.37
54146;BME280;65909;49.422;7.738;2022-12-18T02:36:00;79688.59;;;-145.25;87.65
54146;BME280;65909;49.422;7.738;2022-12-18T02:38:28;79658.50;;;-145.25;86.47
54146;BME280;65909;49.422;7.738;2022-12-18T02:40:54;79692.63;;;-145.25;86.47
54146;BME280;65909;49.422;7.738;2022-12-18T02:43:21;79662.53;;;-145.25;86.35
54146;BME280;65909;49.422;7.738;2022-12-18T02:45:49;79680.56;;;-145.25;86.75
54146;BME280;65909;49.422;7.738;2022-12-18T02:48:17;79756.81;;;-145.25;87.10
54146;BME280;65909;49.422;7.738;2022-12-18T02:51:02;79710.66;;;-145.25;88.20
54146;BME280;65909;49.422;7.738;2022-12-18T02:53:45;79760.84;;;-145.25;88.59
54146;BME280;65909;49.422;7.738;2022-12-18T02:56:25;79706.66;;;-145.25;88.22
54146;BME280;65909;49.422;7.738;2022-12-18T02:59:01;79722.72;;;-145.25;87.86
54146;BME280;65909;49.422;7.738;2022-12-18T03:01:36;79728.72;;;-145.25;87.99
54146;BME280;65909;49.422;7.738;2022-12-18T03:04:09;79696.63;;;-145.25;88.08
54146;BME280;65909;49.422;7.738;2022-12-18T03:06:40;79742.78;;;-145.25;88.35
54146;BME280;65909;49.422;7.738;2022-12-18T03:09:10;79766.84;;;-145.25;87.95
54146;BME280;65909;49.422;7.738;2022-12-18T03:11:39;79734.75;;;-145.25;87.96
54146;BME280;65909;49.422;7.738;2022-12-18T03:14:25;79764.84;;;-145.25;88.73
54146;BME280;65909;49.422;7.738;2022-12-18T03:16:54;79766.84;;;-145.25;88.28
54146;BME280;65909;49.422;7.738;2022-12-18T03:19:26;79813.00;;;-145.25;88.62
54146;BME280;65909;49.422;7.738;2022-12-18T03:21:55;79758.81;;;-145.25;89.40
54146;BME280;65909;49.422;7.738;2022-12-18T03:24:22;79736.75;;;-145.25;88.55
54146;BME280;65909;49.422;7.738;2022-12-18T03:26:53;79796.94;;;-145.25;88.29
54146;BME280;65909;49.422;7.738;2022-12-18T03:29:33;79806.97;;;-145.25;89.19
54146;BME280;65909;49.422;7.738;2022-12-18T03:32:20;79790.94;;;-145.25;89.05
54146;BME280;65909;49.422;7.738;2022-12-18T03:34:51;79744.78;;;-145.25;88.55
54146;BME280;65909;49.422;7.738;2022-12-18T03:37:17;79708.66;;;-145.25;88.33
54146;BME280;65909;49.422;7.738;2022-12-18T03:39:42;79736.75;;;-145.25;87.73
54146;BME280;65909;49.422;7.738;2022-12-18T03:42:16;79696.63;;;-145.25;87.19
54146;BME280;65909;49.422;7.738;2022-12-18T03:44:59;79700.63;;;-145.25;85.63
54146;BME280;65909;49.422;7.738;2022-12-18T03:47:40;79698.63;;;-145.25;84.92
54146;BME280;65909;49.422;7.738;2022-12-18T03:50:16;79694.63;;;-145.25;84.58
54146;BME280;65909;49.422;7.738;2022-12-18T03:55:21;79746.78;;;-145.25;84.41
54146;BME280;65909;49.422;7.738;2022-12-18T03:57:48;79744.78;;;-145.25;84.03
54146;BME280;65909;49.422;7.738;2022-12-18T04:00:17;79784.91;;;-145.25;85.44
54146;BME280;65909;49.422;7.738;2022-12-18T04:02:45;79823.03;;;-145.25;86.32
54146;BME280;65909;49.422;7.738;2022-12-18T04:05:12;79813.00;;;-145.25;86.91
54146;BME280;65909;49.422;7.738;2022-12-18T04:07:39;79794.94;;;-145.25;86.79
54146;BME280;65909;49.422;7.738;2022-12-18T04:10:06;79782.91;;;-145.25;86.36
54146;BME280;65909;49.422;7.738;2022-12-18T04:12:33;79784.91;;;-145.25;86.28
54146;BME280;65909;49.422;7.738;2022-12-18T04:14:58;79811.00;;;-145.25;85.97
54146;BME280;65909;49.422;7.738;2022-12-18T04:17:23;79794.94;;;-145.25;85.67
54146;BME280;65909;49.422;7.738;2022-12-18T04:19:49;79802.97;;;-145.25;85.35
54146;BME280;65909;49.422;7.738;2022-12-18T04:22:15;79815.00;;;-145.25;86.48
54146;BME280;65909;49.422;7.738;2022-12-18T04:24:40;79774.88;;;-145.25;85.35
54146;BME280;65909;49.422;7.738;2022-12-18T04:27:06;79772.88;;;-145.25;84.20
54146;BME280;65909;49.422;7.738;2022-12-18T04:29:31;79766.84;;;-145.25;84.07
54146;BME280;65909;49.422;7.738;2022-12-18T04:31:57;79815.00;;;-145.25;84.21
54146;BME280;65909;49.422;7.738;2022-12-18T04:34:22;79811.00;;;-145.25;84.13
54146;BME280;65909;49.422;7.738;2022-12-18T04:36:48;79871.19;;;-145.25;85.09
54146;BME280;65909;49.422;7.738;2022-12-18T04:39:14;79879.22;;;-145.25;84.72
54146;BME280;65909;49.422;7.738;2022-12-18T04:41:43;79859.16;;;-145.25;86.07
54146;BME280;65909;49.422;7.738;2022-12-18T04:44:08;79811.00;;;-145.25;85.14
54146;BME280;65909;49.422;7.738;2022-12-18T04:46:34;79809.00;;;-145.25;83.75
54146;BME280;65909;49.422;7.738;2022-12-18T04:48:59;79811.00;;;-145.25;82.56
54146;BME280;65909;49.422;7.738;2022-12-18T04:51:25;79823.03;;;-145.25;83.05
54146;BME280;65909;49.422;7.738;2022-12-18T04:53:50;79811.00;;;-145.25;83.48
54146;BME280;65909;49.422;7.738;2022-12-18T04:56:16;79821.03;;;-145.25;83.22
54146;BME280;65909;49.422;7.738;2022-12-18T04:58:43;79811.00;;;-145.25;83.42
54146;BME280;65909;49.422;7.738;2022-12-18T05:01:10;79813.00;;;-145.25;81.90
54146;BME280;65909;49.422;7.738;2022-12-18T05:03:36;79811.00;;;-145.25;81.29
54146;BME280;65909;49.422;7.738;2022-12-18T05:06:02;79883.22;;;-145.25;82.10
54146;BME280;65909;49.422;7.738;2022-12-18T05:08:28;79889.25;;;-145.25;82.59
54146;BME280;65909;49.422;7.738;2022-12-18T05:11:05;79891.25;;;-145.25;83.00
54146;BME280;65909;49.422;7.738;2022-12-18T05:13:31;79879.22;;;-145.25;82.70
54146;BME280;65909;49.422;7.738;2022-12-18T05:15:57;79877.22;;;-145.25;82.33
54146;BME280;65909;49.422;7.738;2022-12-18T05:18:23;79887.25;;;-145.25;81.40
54146;BME280;65909;49.422;7.738;2022-12-18T05:20:50;79931.41;;;-145.25;82.26
54146;BME280;65909;49.422;7.738;2022-12-18T05:23:16;79959.50;;;-145.25;82.11
54146;BME280;65909;49.422;7.738;2022-12-18T05:25:41;79971.53;;;-145.25;82.88
54146;BME280;65909;49.422;7.738;2022-12-18T05:28:07;79979.56;;;-145.25;82.75
54146;BME280;65909;49.422;7.738;2022-12-18T05:30:32;79979.56;;;-145.25;83.24
54146;BME280;65909;49.422;7.738;2022-12-18T05:32:58;80033.72;;;-145.25;84.10
54146;BME280;65909;49.422;7.738;2022-12-18T05:35:23;80031.72;;;-145.25;84.41
54146;BME280;65909;49.422;7.738;2022-12-18T05:37:48;80041.75;;;-145.25;84.67
54146;BME280;65909;49.422;7.738;2022-12-18T05:40:14;80017.69;;;-145.25;84.18
54146;BME280;65909;49.422;7.738;2022-12-18T05:42:39;79993.59;;;-145.25;83.30
54146;BME280;65909;49.422;7.738;2022-12-18T05:45:05;80009.66;;;-145.25;82.82
54146;BME280;65909;49.422;7.738;2022-12-18T05:47:31;80033.72;;;-145.25;82.34
54146;BME280;65909;49.422;7.738;2022-12-18T05:49:56;80057.81;;;-145.25;83.73
54146;BME280;65909;49.422;7.738;2022-12-18T05:52:22;80059.81;;;-145.25;83.23
54146;BME280;65909;49.422;7.738;2022-12-18T05:54:47;80089.91;;;-145.25;83.37
54146;BME280;65909;49.422;7.738;2022-12-18T05:57:13;80101.97;;;-145.25;83.64
54146;BME280;65909;49.422;7.738;2022-12-18T05:59:38;80055.81;;;-145.25;83.70
54146;BME280;65909;49.422;7.738;2022-12-18T06:02:03;80047.78;;;-145.25;82.36
54146;BME280;65909;49.422;7.738;2022-12-18T06:04:29;80047.78;;;-145.25;82.74
54146;BME280;65909;49.422;7.738;2022-12-18T06:06:54;80063.84;;;-145.25;81.67
54146;BME280;65909;49.422;7.738;2022-12-18T06:09:19;80059.81;;;-145.25;82.35
54146;BME280;65909;49.422;7.738;2022-12-18T06:11:45;80057.81;;;-145.25;81.87
54146;BME280;65909;49.422;7.738;2022-12-18T06:14:10;80093.94;;;-145.25;80.95
54146;BME280;65909;49.422;7.738;2022-12-18T06:16:36;80095.94;;;-145.25;81.56
54146;BME280;65909;49.422;7.738;2022-12-18T06:19:03;80079.88;;;-145.25;81.55
54146;BME280;65909;49.422;7.738;2022-12-18T06:21:29;80103.97;;;-145.25;81.60
54146;BME280;65909;49.422;7.738;2022-12-18T06:23:55;80079.88;;;-145.25;82.07
54146;BME280;65909;49.422;7.738;2022-12-18T06:26:21;80059.81;;;-145.25;81.24
54146;BME280;65909;49.422;7.738;2022-12-18T06:28:46;80067.84;;;-145.25;80.17
54146;BME280;65909;49.422;7.738;2022-12-18T06:31:12;80087.91;;;-145.25;80.52
54146;BME280;65909;49.422;7.738;2022-12-18T06:33:38;80091.94;;;-145.25;80.85
54146;BME280;65909;49.422;7.738;2022-12-18T06:36:08;80087.91;;;-145.25;81.12
54146;BME280;65909;49.422;7.738;2022-12-18T06:38:36;80122.03;;;-145.25;80.51
54146;BME280;65909;49.422;7.738;2022-12-18T06:41:17;80095.94;;;-145.25;80.93
54146;BME280;65909;49.422;7.738;2022-12-18T06:43:44;80067.84;;;-145.25;80.74
54146;BME280;65909;49.422;7.738;2022-12-18T06:46:10;80071.84;;;-145.25;79.40
54146;BME280;65909;49.422;7.738;2022-12-18T06:48:35;80114.00;;;-145.25;80.99
54146;BME280;65909;49.422;7.738;2022-12-18T06:51:02;80079.88;;;-145.25;80.80
54146;BME280;65909;49.422;7.738;2022-12-18T06:53:27;80079.88;;;-145.25;80.38
54146;BME280;65909;49.422;7.738;2022-12-18T06:56:02;80085.91;;;-145.25;79.93
54146;BME280;65909;49.422;7.738;2022-12-18T06:58:28;80095.94;;;-145.25;80.27
54146;BME280;65909;49.422;7.738;2022-12-18T07:00:53;80130.06;;;-145.25;80.27
54146;BME280;65909;49.422;7.738;2022-12-18T07:03:19;80156.13;;;-145.25;81.76
54146;BME280;65909;49.422;7.738;2022-12-18T07:05:44;80160.16;;;-145.25;81.25
54146;BME280;65909;49.422;7.738;2022-12-18T07:08:09;80154.13;;;-145.25;80.79
54146;BME280;65909;49.422;7.738;2022-12-18T07:10:41;80166.16;;;-145.25;81.46
54146;BME280;65909;49.422;7.738;2022-12-18T07:13:07;80132.06;;;-145.25;81.11
54146;BME280;65909;49.422;7.738;2022-12-18T07:15:32;80146.09;;;-145.25;80.44
54146;BME280;65909;49.422;7.738;2022-12-18T07:17:58;80176.22;;;-145.25;80.77
54146;BME280;65909;49.422;7.738;2022-12-18T07:20:23;80156.13;;;-145.25;80.15
54146;BME280;65909;49.422;7.738;2022-12-18T07:22:49;80124.03;;;-145.25;79.58
54146;BME280;65909;49.422;7.738;2022-12-18T07:25:14;80128.03;;;-145.25;79.35
54146;BME280;65909;49.422;7.738;2022-12-18T07:27:39;80126.03;;;-145.25;79.11
54146;BME280;65909;49.422;7.738;2022-12-18T07:30:05;80112.00;;;-145.25;79.37
54146;BME280;65909;49.422;7.738;2022-12-18T07:32:31;80085.91;;;-145.25;79.29
54146;BME280;65909;49.422;7.738;2022-12-18T07:34:56;80101.97;;;-145.25;78.13
54146;BME280;65909;49.422;7.738;2022-12-18T07:37:21;80047.78;;;-145.25;78.03
54146;BME280;65909;49.422;7.738;2022-12-18T07:39:47;80039.75;;;-145.25;77.32
54146;BME280;65909;49.422;7.738;2022-12-18T07:42:12;80021.69;;;-145.25;77.22
54146;BME280;65909;49.422;7.738;2022-12-18T07:44:56;79985.56;;;-145.25;76.75
54146;BME280;65909;49.422;7.738;2022-12-18T07:47:21;79714.69;;;-145.25;74.15
54146;BME280;65909;49.422;7.738;2022-12-18T07:49:47;79578.25;;;-145.25;66.97
54146;BME280;65909;49.422;7.738;2022-12-18T07:52:12;79373.59;;;-145.25;63.07
54146;BME280;65909;49.422;7.738;2022-12-18T07:54:38;79299.38;;;-145.25;58.01
54146;BME280;65909;49.422;7.738;2022-12-18T07:57:03;79191.03;;;-145.25;55.98
54146;BME280;65909;49.422;7.738;2022-12-18T07:59:29;79128.84;;;-145.25;54.32
54146;BME280;65909;49.422;7.738;2022-12-18T08:01:54;79217.09;;;-145.25;54.16
54146;BME280;65909;49.422;7.738;2022-12-18T08:04:19;79377.63;;;-145.25;57.77
54146;BME280;65909;49.422;7.738;2022-12-18T08:06:45;79473.91;;;-145.25;59.61
54146;BME280;65909;49.422;7.738;2022-12-18T08:09:10;79487.97;;;-145.25;61.33
54146;BME280;65909;49.422;7.738;2022-12-18T08:11:36;79548.16;;;-145.25;62.70
54146;BME280;65909;49.422;7.738;2022-12-18T08:14:01;79542.13;;;-145.25;62.75
54146;BME280;65909;49.422;7.738;2022-12-18T08:16:26;79576.25;;;-145.25;62.67
54146;BME280;65909;49.422;7.738;2022-12-18T08:18:53;79566.22;;;-145.25;63.12
54146;BME280;65909;49.422;7.738;2022-12-18T08:21:24;79586.28;;;-145.25;63.06
54146;BME280;65909;49.422;7.738;2022-12-18T08:23:50;79590.28;;;-145.25;64.46
54146;BME280;65909;49.422;7.738;2022-12-18T08:26:16;79554.16;;;-145.25;65.02
54146;BME280;65909;49.422;7.738;2022-12-18T08:28:42;79477.94;;;-145.25;64.14
54146;BME280;65909;49.422;7.738;2022-12-18T08:31:08;79461.88;;;-145.25;63.32
54146;BME280;65909;49.422;7.738;2022-12-18T08:33:34;79391.66;;;-145.25;62.85
54146;BME280;65909;49.422;7.738;2022-12-18T08:36:01;79508.03;;;-145.25;61.19
54146;BME280;65909;49.422;7.738;2022-12-18T08:38:26;79510.03;;;-145.25;61.52
54146;BME280;65909;49.422;7.738;2022-12-18T08:41:03;79504.00;;;-145.25;63.64
54146;BME280;65909;49.422;7.738;2022-12-18T08:43:29;79403.69;;;-145.25;61.86
54146;BME280;65909;49.422;7.738;2022-12-18T08:46:13;79413.72;;;-145.25;63.79
54146;BME280;65909;49.422;7.738;2022-12-18T08:48:38;79423.75;;;-145.25;62.97
54146;BME280;65909;49.422;7.738;2022-12-18T08:51:04;79265.25;;;-145.25;59.47
54146;BME280;65909;49.422;7.738;2022-12-18T08:53:29;79327.44;;;-145.25;59.00
54146;BME280;65909;49.422;7.738;2022-12-18T08:55:56;79325.44;;;-145.25;58.23
54146;BME280;65909;49.422;7.738;2022-12-18T08:58:21;79337.47;;;-145.25;57.79
54146;BME280;65909;49.422;7.738;2022-12-18T09:00:47;79022.50;;;-145.25;55.45
54146;BME280;65909;49.422;7.738;2022-12-18T09:03:16;78980.38;;;-145.25;53.56
54146;BME280;65909;49.422;7.738;2022-12-18T09:05:42;79064.63;;;-145.25;54.08
54146;BME280;65909;49.422;7.738;2022-12-18T09:08:08;79116.81;;;-145.25;56.03
54146;BME280;65909;49.422;7.738;2022-12-18T09:10:34;79042.56;;;-145.25;53.75
54146;BME280;65909;49.422;7.738;2022-12-18T09:12:59;78928.22;;;-145.25;53.11
54146;BME280;65909;49.422;7.738;2022-12-18T09:15:25;78880.06;;;-145.25;50.45
54146;BME280;65909;49.422;7.738;2022-12-18T09:17:51;78854.00;;;-145.25;49.38
54146;BME280;65909;49.422;7.738;2022-12-18T09:20:18;78779.78;;;-145.25;48.96
54146;BME280;65909;49.422;7.738;2022-12-18T09:22:43;78659.41;;;-145.25;48.15
54146;BME280;65909;49.422;7.738;2022-12-18T09:25:09;78510.97;;;-145.25;45.31
54146;BME280;65909;49.422;7.738;2022-12-18T09:27:35;78434.75;;;-145.25;45.11
54146;BME280;65909;49.422;7.738;2022-12-18T09:30:00;78543.06;;;-145.25;45.41
54146;BME280;65909;49.422;7.738;2022-12-18T09:32:26;78466.84;;;-145.25;44.83
54146;BME280;65909;49.422;7.738;2022-12-18T09:34:51;78272.28;;;-145.25;44.09
54146;BME280;65909;49.422;7.738;2022-12-18T09:37:17;78178.00;;;-145.25;41.47
54146;BME280;65909;49.422;7.738;2022-12-18T09:39:42;78196.06;;;-145.25;42.52
54146;BME280;65909;49.422;7.738;2022-12-18T09:42:17;78436.75;;;-145.25;43.47
54146;BME280;65909;49.422;7.738;2022-12-18T09:44:52;78394.63;;;-145.25;43.29
54146;BME280;65909;49.422;7.738;2022-12-18T09:47:19;78480.88;;;-145.25;44.78
54146;BME280;65909;49.422;7.738;2022-12-18T09:49:57;78466.84;;;-145.25;44.29
54146;BME280;65909;49.422;7.738;2022-12-18T09:52:29;78376.59;;;-145.25;44.20
54146;BME280;65909;49.422;7.738;2022-12-18T09:55:03;78334.47;;;-145.25;42.93
54146;BME280;65909;49.422;7.738;2022-12-18T09:57:33;78159.97;;;-145.25;41.46
54146;BME280;65909;49.422;7.738;2022-12-18T10:00:16;78284.31;;;-145.25;42.16
54146;BME280;65909;49.422;7.738;2022-12-18T10:02:43;78725.59;;;-145.25;47.87
54146;BME280;65909;49.422;7.738;2022-12-18T10:05:12;78920.19;;;-145.25;51.05
54146;BME280;65909;49.422;7.738;2022-12-18T10:07:53;78450.81;;;-145.25;48.17
54146;BME280;65909;49.422;7.738;2022-12-18T10:10:28;78472.88;;;-145.25;45.85
54146;BME280;65909;49.422;7.738;2022-12-18T10:13:04;78547.09;;;-145.25;47.54
54146;BME280;65909;49.422;7.738;2022-12-18T10:15:54;78649.38;;;-145.25;50.23
54146;BME280;65909;49.422;7.738;2022-12-18T10:20:57;78448.78;;;-145.25;47.97
54146;BME280;65909;49.422;7.738;2022-12-18T10:23:33;78466.84;;;-145.25;47.45
54146;BME280;65909;49.422;7.738;2022-12-18T10:26:06;78531.03;;;-145.25;48.04
54146;BME280;65909;49.422;7.738;2022-12-18T10:28:35;78643.38;;;-145.25;50.18
54146;BME280;65909;49.422;7.738;2022-12-18T10:31:01;78665.44;;;-145.25;51.55
54146;BME280;65909;49.422;7.738;2022-12-18T10:33:30;78565.13;;;-145.25;49.24
54146;BME280;65909;49.422;7.738;2022-12-18T10:35:57;78482.88;;;-145.25;48.77
54146;BME280;65909;49.422;7.738;2022-12-18T10:38:30;78476.88;;;-145.25;49.15
54146;BME280;65909;49.422;7.738;2022-12-18T10:41:05;78515.00;;;-145.25;48.29
54146;BME280;65909;49.422;7.738;2022-12-18T10:43:36;78733.63;;;-145.25;51.22
54146;BME280;65909;49.422;7.738;2022-12-18T10:51:26;78709.56;;;-145.25;52.92
54146;BME280;65909;49.422;7.738;2022-12-18T10:54:13;78707.56;;;-145.25;53.92
54146;BME280;65909;49.422;7.738;2022-12-18T10:56:40;78856.00;;;-145.25;56.26
54146;BME280;65909;49.422;7.738;2022-12-18T10:59:15;78841.97;;;-145.25;56.12
54146;BME280;65909;49.422;7.738;2022-12-18T11:04:32;79034.53;;;-145.25;61.00
54146;BME280;65909;49.422;7.738;2022-12-18T11:07:07;78954.31;;;-145.25;60.85
54146;BME280;65909;49.422;7.738;2022-12-18T11:09:40;78976.38;;;-145.25;60.48
54146;BME280;65909;49.422;7.738;2022-12-18T11:12:16;78852.00;;;-145.25;58.50
54146;BME280;65909;49.422;7.738;2022-12-18T11:14:46;79024.50;;;-145.25;60.60
54146;BME280;65909;49.422;7.738;2022-12-18T11:17:33;78793.81;;;-145.25;56.70
54146;BME280;65909;49.422;7.738;2022-12-18T11:20:02;78831.94;;;-145.25;59.17
54146;BME280;65909;49.422;7.738;2022-12-18T11:22:30;79012.47;;;-145.25;60.16
54146;BME280;65909;49.422;7.738;2022-12-18T11:24:59;79074.66;;;-145.25;62.26
54146;BME280;65909;49.422;7.738;2022-12-18T11:27:26;78882.09;;;-145.25;59.44
54146;BME280;65909;49.422;7.738;2022-12-18T11:30:20;78767.75;;;-145.25;57.00
54146;BME280;65909;49.422;7.738;2022-12-18T11:32:53;78675.47;;;-145.25;55.93
54146;BME280;65909;49.422;7.738;2022-12-18T11:35:30;78749.69;;;-145.25;55.90
54146;BME280;65909;49.422;7.738;2022-12-18T11:38:01;78892.13;;;-145.25;59.83
54146;BME280;65909;49.422;7.738;2022-12-18T11:40:36;78858.00;;;-145.25;59.89
54146;BME280;65909;49.422;7.738;2022-12-18T11:43:10;78811.88;;;-145.25;58.45
54146;BME280;65909;49.422;7.738;2022-12-18T11:45:48;78841.97;;;-145.25;59.59
54146;BME280;65909;49.422;7.738;2022-12-18T11:48:19;78771.75;;;-145.25;57.40
54146;BME280;65909;49.422;7.738;2022-12-18T11:50:53;78926.22;;;-145.25;59.19
54146;BME280;65909;49.422;7.738;2022-12-18T11:53:19;78837.94;;;-145.25;60.11
54146;BME280;65909;49.422;7.738;2022-12-18T11:58:48;78920.19;;;-145.25;60.92
54146;BME280;65909;49.422;7.738;2022-12-18T12:01:44;79032.53;;;-145.25;62.35
54146;BME280;65909;49.422;7.738;2022-12-18T12:04:45;78992.41;;;-145.25;62.18
54146;BME280;65909;49.422;7.738;2022-12-18T12:07:15;78964.34;;;-145.25;61.84
54146;BME280;65909;49.422;7.738;2022-12-18T12:10:14;79006.47;;;-145.25;63.22
54146;BME280;65909;49.422;7.738;2022-12-18T12:18:20;79118.81;;;-145.25;67.16
54146;BME280;65909;49.422;7.738;2022-12-18T12:21:09;79050.59;;;-145.25;66.46
54146;BME280;65909;49.422;7.738;2022-12-18T12:26:17;79024.50;;;-145.25;66.19
54146;BME280;65909;49.422;7.738;2022-12-18T12:35:39;79199.06;;;-145.25;69.21
54146;BME280;65909;49.422;7.738;2022-12-18T12:40:52;79080.69;;;-145.25;68.80
54146;BME280;65909;49.422;7.738;2022-12-18T12:43:35;79110.78;;;-145.25;68.99
54146;BME280;65909;49.422;7.738;2022-12-18T12:46:11;79174.97;;;-145.25;69.78
54146;BME280;65909;49.422;7.738;2022-12-18T12:48:43;79086.72;;;-145.25;69.59
54146;BME280;65909;49.422;7.738;2022-12-18T12:53:38;79154.91;;;-145.25;71.35
54146;BME280;65909;49.422;7.738;2022-12-18T12:56:05;79168.97;;;-145.25;72.38
54146;BME280;65909;49.422;7.738;2022-12-18T12:58:40;79100.75;;;-145.25;71.49
54146;BME280;65909;49.422;7.738;2022-12-18T13:01:12;79134.84;;;-145.25;72.19
54146;BME280;65909;49.422;7.738;2022-12-18T13:03:56;79118.81;;;-145.25;71.83
54146;BME280;65909;49.422;7.738;2022-12-18T13:06:53;79124.81;;;-145.25;71.35
54146;BME280;65909;49.422;7.738;2022-12-18T13:09:22;79162.94;;;-145.25;72.49
54146;BME280;65909;49.422;7.738;2022-12-18T13:11:48;79185.00;;;-145.25;73.88
54146;BME280;65909;49.422;7.738;2022-12-18T13:19:44;79183.00;;;-145.25;73.44
54146;BME280;65909;49.422;7.738;2022-12-18T13:22:24;79108.78;;;-145.25;72.57
54146;BME280;65909;49.422;7.738;2022-12-18T13:24:50;79148.91;;;-145.25;72.67
54146;BME280;65909;49.422;7.738;2022-12-18T13:27:45;79134.84;;;-145.25;73.33
54146;BME280;65909;49.422;7.738;2022-12-18T13:38:23;79166.94;;;-145.25;74.81
54146;BME280;65909;49.422;7.738;2022-12-18T13:43:36;79140.88;;;-145.25;74.57
54146;BME280;65909;49.422;7.738;2022-12-18T13:46:06;79124.81;;;-145.25;74.02
54146;BME280;65909;49.422;7.738;2022-12-18T13:48:50;79164.94;;;-145.25;73.95
54146;BME280;65909;49.422;7.738;2022-12-18T13:51:17;79150.91;;;-145.25;74.65
54146;BME280;65909;49.422;7.738;2022-12-18T13:53:49;79100.75;;;-145.25;73.79
54146;BME280;65909;49.422;7.738;2022-12-18T13:56:22;79092.72;;;-145.25;73.82